sensor_id;sensor_type;location;lat;lon;timestamp;pressure;altitude;pressure_sealevel;temperature;humidity
59531;BME280;45349;48.692;8.186;2023-03-01T00:01:15;99366.84;;;-2.13;89.47
59531;BME280;45349;48.692;8.186;2023-03-01T00:03:42;99372.06;;;-2.16;90.05
59531;BME280;45349;48.692;8.186;2023-03-01T00:06:10;99368.72;;;-2.18;90.93
59531;BME280;45349;48.692;8.186;2023-03-01T00:08:37;99363.50;;;-2.15;91.04
59531;BME280;45349;48.692;8.186;2023-03-01T00:11:05;99376.34;;;-2.16;90.29
59531;BME280;45349;48.692;8.186;2023-03-01T00:13:34;99364.16;;;-2.10;90.54
59531;BME280;45349;48.692;8.186;2023-03-01T00:16:02;99368.19;;;-2.02;89.20
59531;BME280;45349;48.692;8.186;2023-03-01T00:18:29;99363.00;;;-2.01;88.95
59531;BME280;45349;48.692;8.186;2023-03-01T00:20:56;99363.69;;;-1.70;85.60
59531;BME280;45349;48.692;8.186;2023-03-01T00:23:24;99368.06;;;-1.74;85.83
59531;BME280;45349;48.692;8.186;2023-03-01T00:25:51;99365.72;;;-1.80;86.69
59531;BME280;45349;48.692;8.186;2023-03-01T00:28:20;99359.13;;;-1.62;84.77
59531;BME280;45349;48.692;8.186;2023-03-01T00:30:47;99361.84;;;-1.67;84.63
59531;BME280;45349;48.692;8.186;2023-03-01T00:33:13;99364.69;;;-1.74;87.35
59531;BME280;45349;48.692;8.186;2023-03-01T00:35:40;99359.72;;;-1.79;86.69
59531;BME280;45349;48.692;8.186;2023-03-01T00:38:07;99370.72;;;-1.77;86.34
59531;BME280;45349;48.692;8.186;2023-03-01T00:40:35;99370.41;;;-1.44;82.73
59531;BME280;45349;48.692;8.186;2023-03-01T00:43:03;99370.56;;;-1.49;83.86
59531;BME280;45349;48.692;8.186;2023-03-01T00:45:29;99369.50;;;-1.67;84.66
59531;BME280;45349;48.692;8.186;2023-03-01T00:47:57;99357.66;;;-1.69;84.41
59531;BME280;45349;48.692;8.186;2023-03-01T00:50:24;99358.50;;;-1.69;84.71
59531;BME280;45349;48.692;8.186;2023-03-01T00:52:52;99354.91;;;-1.63;83.49
59531;BME280;45349;48.692;8.186;2023-03-01T00:55:19;99354.72;;;-1.58;83.21
59531;BME280;45349;48.692;8.186;2023-03-01T00:57:47;99350.38;;;-1.56;83.37
59531;BME280;45349;48.692;8.186;2023-03-01T01:00:15;99353.84;;;-1.59;83.43
59531;BME280;45349;48.692;8.186;2023-03-01T01:02:42;99354.03;;;-1.64;83.99
59531;BME280;45349;48.692;8.186;2023-03-01T01:05:08;99343.91;;;-1.67;84.09
59531;BME280;45349;48.692;8.186;2023-03-01T01:07:35;99348.63;;;-1.56;83.23
59531;BME280;45349;48.692;8.186;2023-03-01T01:10:02;99341.78;;;-1.55;82.85
59531;BME280;45349;48.692;8.186;2023-03-01T01:12:29;99343.91;;;-1.43;82.09
59531;BME280;45349;48.692;8.186;2023-03-01T01:14:57;99344.19;;;-1.51;83.19
59531;BME280;45349;48.692;8.186;2023-03-01T01:17:24;99339.41;;;-1.60;83.19
59531;BME280;45349;48.692;8.186;2023-03-01T01:19:50;99340.78;;;-1.51;82.62
59531;BME280;45349;48.692;8.186;2023-03-01T01:22:17;99336.13;;;-1.40;81.54
59531;BME280;45349;48.692;8.186;2023-03-01T01:24:43;99337.78;;;-1.39;81.79
59531;BME280;45349;48.692;8.186;2023-03-01T01:27:10;99328.66;;;-1.46;83.01
59531;BME280;45349;48.692;8.186;2023-03-01T01:29:37;99328.81;;;-1.51;83.32
59531;BME280;45349;48.692;8.186;2023-03-01T01:32:05;99325.66;;;-1.57;84.10
59531;BME280;45349;48.692;8.186;2023-03-01T01:34:32;99321.88;;;-1.71;85.29
59531;BME280;45349;48.692;8.186;2023-03-01T01:36:58;99322.09;;;-1.77;85.15
59531;BME280;45349;48.692;8.186;2023-03-01T01:39:28;99317.97;;;-1.81;85.76
59531;BME280;45349;48.692;8.186;2023-03-01T01:41:54;99313.38;;;-1.71;84.44
59531;BME280;45349;48.692;8.186;2023-03-01T01:44:22;99314.19;;;-1.71;84.40
59531;BME280;45349;48.692;8.186;2023-03-01T01:46:53;99317.97;;;-1.57;83.34
59531;BME280;45349;48.692;8.186;2023-03-01T01:49:28;99315.59;;;-1.62;84.37
59531;BME280;45349;48.692;8.186;2023-03-01T01:52:01;99313.41;;;-1.73;84.21
59531;BME280;45349;48.692;8.186;2023-03-01T01:54:36;99311.47;;;-1.90;85.35
59531;BME280;45349;48.692;8.186;2023-03-01T01:57:07;99318.84;;;-2.06;86.75
59531;BME280;45349;48.692;8.186;2023-03-01T01:59:35;99312.22;;;-2.12;87.70
59531;BME280;45349;48.692;8.186;2023-03-01T02:02:04;99311.22;;;-2.08;86.93
59531;BME280;45349;48.692;8.186;2023-03-01T02:04:32;99308.06;;;-2.14;87.57
59531;BME280;45349;48.692;8.186;2023-03-01T02:07:02;99296.69;;;-2.31;87.79
59531;BME280;45349;48.692;8.186;2023-03-01T02:09:32;99297.91;;;-2.41;89.53
59531;BME280;45349;48.692;8.186;2023-03-01T02:12:01;99300.75;;;-2.50;89.95
59531;BME280;45349;48.692;8.186;2023-03-01T02:14:28;99294.19;;;-2.58;91.00
59531;BME280;45349;48.692;8.186;2023-03-01T02:16:54;99290.25;;;-2.68;91.40
59531;BME280;45349;48.692;8.186;2023-03-01T02:19:31;99287.91;;;-2.74;92.68
59531;BME280;45349;48.692;8.186;2023-03-01T02:22:07;99292.28;;;-2.78;92.79
59531;BME280;45349;48.692;8.186;2023-03-01T02:24:42;99288.50;;;-2.93;93.05
59531;BME280;45349;48.692;8.186;2023-03-01T02:27:17;99286.81;;;-2.94;93.79
59531;BME280;45349;48.692;8.186;2023-03-01T02:29:49;99277.75;;;-3.03;94.02
59531;BME280;45349;48.692;8.186;2023-03-01T02:32:17;99282.97;;;-3.07;95.20
59531;BME280;45349;48.692;8.186;2023-03-01T02:34:51;99282.66;;;-2.97;95.18
59531;BME280;45349;48.692;8.186;2023-03-01T02:37:19;99282.00;;;-3.03;94.83
59531;BME280;45349;48.692;8.186;2023-03-01T02:39:53;99270.19;;;-3.06;94.55
59531;BME280;45349;48.692;8.186;2023-03-01T02:42:26;99267.63;;;-3.06;95.84
59531;BME280;45349;48.692;8.186;2023-03-01T02:44:54;99267.72;;;-3.09;96.15
59531;BME280;45349;48.692;8.186;2023-03-01T02:47:21;99260.94;;;-3.10;96.37
59531;BME280;45349;48.692;8.186;2023-03-01T02:49:48;99257.25;;;-3.01;96.51
59531;BME280;45349;48.692;8.186;2023-03-01T02:52:27;99251.75;;;-2.63;92.43
59531;BME280;45349;48.692;8.186;2023-03-01T02:54:59;99254.53;;;-2.44;92.03
59531;BME280;45349;48.692;8.186;2023-03-01T02:57:28;99246.06;;;-1.97;87.89
59531;BME280;45349;48.692;8.186;2023-03-01T02:59:59;99239.63;;;-1.85;86.51
59531;BME280;45349;48.692;8.186;2023-03-01T03:02:33;99238.66;;;-2.05;87.94
59531;BME280;45349;48.692;8.186;2023-03-01T03:05:18;99236.81;;;-2.25;89.66
59531;BME280;45349;48.692;8.186;2023-03-01T03:07:47;99234.66;;;-2.36;90.21
59531;BME280;45349;48.692;8.186;2023-03-01T03:10:17;99235.97;;;-2.49;91.28
59531;BME280;45349;48.692;8.186;2023-03-01T03:12:48;99237.06;;;-2.57;92.12
59531;BME280;45349;48.692;8.186;2023-03-01T03:15:17;99229.31;;;-2.55;90.75
59531;BME280;45349;48.692;8.186;2023-03-01T03:17:46;99224.97;;;-2.52;91.49
59531;BME280;45349;48.692;8.186;2023-03-01T03:20:14;99232.16;;;-2.63;91.87
59531;BME280;45349;48.692;8.186;2023-03-01T03:22:44;99232.06;;;-2.60;92.60
59531;BME280;45349;48.692;8.186;2023-03-01T03:25:11;99224.41;;;-2.61;92.15
59531;BME280;45349;48.692;8.186;2023-03-01T03:27:39;99223.09;;;-2.72;93.02
59531;BME280;45349;48.692;8.186;2023-03-01T03:30:08;99220.00;;;-2.82;92.68
59531;BME280;45349;48.692;8.186;2023-03-01T03:32:39;99217.03;;;-2.94;94.09
59531;BME280;45349;48.692;8.186;2023-03-01T03:35:07;99216.28;;;-2.98;94.88
59531;BME280;45349;48.692;8.186;2023-03-01T03:37:35;99215.78;;;-3.09;94.70
59531;BME280;45349;48.692;8.186;2023-03-01T03:40:20;99213.13;;;-3.06;95.45
59531;BME280;45349;48.692;8.186;2023-03-01T03:42:47;99204.75;;;-3.10;95.22
59531;BME280;45349;48.692;8.186;2023-03-01T03:45:14;99215.56;;;-3.29;95.55
59531;BME280;45349;48.692;8.186;2023-03-01T03:47:42;99212.28;;;-3.32;95.69
59531;BME280;45349;48.692;8.186;2023-03-01T03:50:09;99212.31;;;-3.34;97.32
59531;BME280;45349;48.692;8.186;2023-03-01T03:52:36;99213.34;;;-3.39;98.16
59531;BME280;45349;48.692;8.186;2023-03-01T03:55:03;99213.44;;;-3.43;98.23
59531;BME280;45349;48.692;8.186;2023-03-01T03:57:34;99216.31;;;-3.53;98.18
59531;BME280;45349;48.692;8.186;2023-03-01T04:00:01;99205.28;;;-3.54;97.60
59531;BME280;45349;48.692;8.186;2023-03-01T04:02:37;99213.31;;;-3.66;97.66
59531;BME280;45349;48.692;8.186;2023-03-01T04:05:07;99206.69;;;-3.72;98.13
59531;BME280;45349;48.692;8.186;2023-03-01T04:07:34;99199.81;;;-3.70;98.53
59531;BME280;45349;48.692;8.186;2023-03-01T04:10:01;99197.66;;;-3.82;98.87
59531;BME280;45349;48.692;8.186;2023-03-01T04:12:27;99193.16;;;-3.74;99.84
59531;BME280;45349;48.692;8.186;2023-03-01T04:14:54;99192.38;;;-3.76;100.00
59531;BME280;45349;48.692;8.186;2023-03-01T04:17:20;99192.81;;;-3.63;100.00
59531;BME280;45349;48.692;8.186;2023-03-01T04:19:47;99187.16;;;-3.73;100.00
59531;BME280;45349;48.692;8.186;2023-03-01T04:22:15;99186.72;;;-3.59;100.00
59531;BME280;45349;48.692;8.186;2023-03-01T04:24:42;99192.53;;;-3.54;100.00
59531;BME280;45349;48.692;8.186;2023-03-01T04:27:09;99179.81;;;-3.56;100.00
59531;BME280;45349;48.692;8.186;2023-03-01T04:29:36;99177.31;;;-3.57;100.00
59531;BME280;45349;48.692;8.186;2023-03-01T04:32:03;99186.75;;;-3.61;100.00
59531;BME280;45349;48.692;8.186;2023-03-01T04:34:30;99184.00;;;-3.53;100.00
59531;BME280;45349;48.692;8.186;2023-03-01T04:36:56;99192.53;;;-3.54;100.00
59531;BME280;45349;48.692;8.186;2023-03-01T04:39:24;99190.00;;;-3.56;100.00
59531;BME280;45349;48.692;8.186;2023-03-01T04:41:51;99178.22;;;-3.60;100.00
59531;BME280;45349;48.692;8.186;2023-03-01T04:44:17;99169.84;;;-3.63;99.99
59531;BME280;45349;48.692;8.186;2023-03-01T04:46:44;99177.94;;;-3.77;99.58
59531;BME280;45349;48.692;8.186;2023-03-01T04:49:11;99175.38;;;-3.77;100.00
59531;BME280;45349;48.692;8.186;2023-03-01T04:51:38;99174.88;;;-3.89;100.00
59531;BME280;45349;48.692;8.186;2023-03-01T04:54:04;99179.03;;;-3.86;100.00
59531;BME280;45349;48.692;8.186;2023-03-01T04:56:35;99167.22;;;-3.89;100.00
59531;BME280;45349;48.692;8.186;2023-03-01T04:59:01;99171.38;;;-3.86;100.00
59531;BME280;45349;48.692;8.186;2023-03-01T05:01:31;99179.19;;;-3.91;100.00
59531;BME280;45349;48.692;8.186;2023-03-01T05:03:57;99171.56;;;-3.92;100.00
59531;BME280;45349;48.692;8.186;2023-03-01T05:06:28;99174.97;;;-3.92;100.00
59531;BME280;45349;48.692;8.186;2023-03-01T05:08:55;99175.69;;;-3.88;100.00
59531;BME280;45349;48.692;8.186;2023-03-01T05:11:21;99173.84;;;-3.83;100.00
59531;BME280;45349;48.692;8.186;2023-03-01T05:13:49;99171.63;;;-3.94;100.00
59531;BME280;45349;48.692;8.186;2023-03-01T05:16:20;99173.41;;;-3.97;100.00
59531;BME280;45349;48.692;8.186;2023-03-01T05:18:46;99166.69;;;-4.00;100.00
59531;BME280;45349;48.692;8.186;2023-03-01T05:21:16;99176.13;;;-4.04;100.00
59531;BME280;45349;48.692;8.186;2023-03-01T05:23:43;99170.88;;;-3.97;100.00
59531;BME280;45349;48.692;8.186;2023-03-01T05:26:10;99168.91;;;-3.89;100.00
59531;BME280;45349;48.692;8.186;2023-03-01T05:28:37;99169.81;;;-3.90;100.00
59531;BME280;45349;48.692;8.186;2023-03-01T05:31:06;99173.22;;;-3.91;100.00
59531;BME280;45349;48.692;8.186;2023-03-01T05:33:35;99173.28;;;-3.93;100.00
59531;BME280;45349;48.692;8.186;2023-03-01T05:36:02;99169.19;;;-3.98;100.00
59531;BME280;45349;48.692;8.186;2023-03-01T05:38:29;99161.53;;;-3.98;100.00
59531;BME280;45349;48.692;8.186;2023-03-01T05:40:56;99172.44;;;-3.93;100.00
59531;BME280;45349;48.692;8.186;2023-03-01T05:43:22;99163.09;;;-3.93;100.00
59531;BME280;45349;48.692;8.186;2023-03-01T05:45:49;99178.25;;;-3.88;100.00
59531;BME280;45349;48.692;8.186;2023-03-01T05:48:17;99164.66;;;-3.89;100.00
59531;BME280;45349;48.692;8.186;2023-03-01T05:50:45;99170.75;;;-3.93;100.00
59531;BME280;45349;48.692;8.186;2023-03-01T05:53:15;99162.41;;;-4.00;100.00
59531;BME280;45349;48.692;8.186;2023-03-01T05:55:43;99159.84;;;-3.98;100.00
59531;BME280;45349;48.692;8.186;2023-03-01T05:58:13;99168.38;;;-3.99;100.00
59531;BME280;45349;48.692;8.186;2023-03-01T06:00:41;99167.63;;;-4.03;100.00
59531;BME280;45349;48.692;8.186;2023-03-01T06:03:10;99168.03;;;-3.88;100.00
59531;BME280;45349;48.692;8.186;2023-03-01T06:05:39;99161.41;;;-3.94;100.00
59531;BME280;45349;48.692;8.186;2023-03-01T06:08:06;99158.91;;;-3.95;100.00
59531;BME280;45349;48.692;8.186;2023-03-01T06:10:33;99159.50;;;-3.87;100.00
59531;BME280;45349;48.692;8.186;2023-03-01T06:12:59;99160.06;;;-3.77;100.00
59531;BME280;45349;48.692;8.186;2023-03-01T06:15:26;99161.19;;;-3.86;100.00
59531;BME280;45349;48.692;8.186;2023-03-01T06:17:54;99162.03;;;-3.86;100.00
59531;BME280;45349;48.692;8.186;2023-03-01T06:20:24;99162.81;;;-3.83;100.00
59531;BME280;45349;48.692;8.186;2023-03-01T06:22:52;99160.19;;;-3.82;100.00
59531;BME280;45349;48.692;8.186;2023-03-01T06:25:21;99153.06;;;-3.71;100.00
59531;BME280;45349;48.692;8.186;2023-03-01T06:27:48;99165.56;;;-3.63;100.00
59531;BME280;45349;48.692;8.186;2023-03-01T06:30:17;99164.47;;;-3.54;100.00
59531;BME280;45349;48.692;8.186;2023-03-01T06:32:44;99151.69;;;-3.54;100.00
59531;BME280;45349;48.692;8.186;2023-03-01T06:35:12;99160.94;;;-3.50;100.00
59531;BME280;45349;48.692;8.186;2023-03-01T06:37:40;99161.63;;;-3.45;100.00
59531;BME280;45349;48.692;8.186;2023-03-01T06:40:10;99154.38;;;-3.32;100.00
59531;BME280;45349;48.692;8.186;2023-03-01T06:42:41;99160.66;;;-3.15;100.00
59531;BME280;45349;48.692;8.186;2023-03-01T06:45:09;99156.13;;;-3.07;100.00
59531;BME280;45349;48.692;8.186;2023-03-01T06:47:36;99152.63;;;-3.04;100.00
59531;BME280;45349;48.692;8.186;2023-03-01T06:50:03;99145.44;;;-2.93;100.00
59531;BME280;45349;48.692;8.186;2023-03-01T06:52:30;99150.16;;;-2.57;100.00
59531;BME280;45349;48.692;8.186;2023-03-01T06:54:57;99149.59;;;-2.41;100.00
59531;BME280;45349;48.692;8.186;2023-03-01T06:57:25;99146.50;;;-2.26;99.06
59531;BME280;45349;48.692;8.186;2023-03-01T06:59:52;99144.72;;;-2.24;98.66
59531;BME280;45349;48.692;8.186;2023-03-01T07:02:18;99141.03;;;-2.16;98.86
59531;BME280;45349;48.692;8.186;2023-03-01T07:04:45;99141.56;;;-2.08;98.42
59531;BME280;45349;48.692;8.186;2023-03-01T07:07:12;99137.16;;;-2.04;99.05
59531;BME280;45349;48.692;8.186;2023-03-01T07:09:38;99139.31;;;-1.94;98.05
59531;BME280;45349;48.692;8.186;2023-03-01T07:12:06;99131.63;;;-1.94;97.71
59531;BME280;45349;48.692;8.186;2023-03-01T07:14:34;99125.34;;;-1.85;97.25
59531;BME280;45349;48.692;8.186;2023-03-01T07:17:01;99130.25;;;-1.80;96.70
59531;BME280;45349;48.692;8.186;2023-03-01T07:19:27;99128.72;;;-1.84;96.38
59531;BME280;45349;48.692;8.186;2023-03-01T07:21:54;99134.69;;;-1.84;97.00
59531;BME280;45349;48.692;8.186;2023-03-01T07:24:21;99119.75;;;-1.72;96.04
59531;BME280;45349;48.692;8.186;2023-03-01T07:26:48;99118.47;;;-1.62;94.96
59531;BME280;45349;48.692;8.186;2023-03-01T07:29:15;99119.81;;;-1.53;92.91
59531;BME280;45349;48.692;8.186;2023-03-01T07:31:43;99113.47;;;-1.44;93.46
59531;BME280;45349;48.692;8.186;2023-03-01T07:34:10;99119.09;;;-1.35;93.15
59531;BME280;45349;48.692;8.186;2023-03-01T07:36:37;99113.44;;;-1.22;92.81
59531;BME280;45349;48.692;8.186;2023-03-01T07:39:04;99117.09;;;-1.07;90.51
59531;BME280;45349;48.692;8.186;2023-03-01T07:41:31;99109.44;;;-0.88;90.01
59531;BME280;45349;48.692;8.186;2023-03-01T07:43:58;99106.22;;;-0.72;89.33
59531;BME280;45349;48.692;8.186;2023-03-01T07:46:24;99111.50;;;-0.56;87.81
59531;BME280;45349;48.692;8.186;2023-03-01T07:48:52;99113.38;;;-0.41;87.83
59531;BME280;45349;48.692;8.186;2023-03-01T07:51:19;99108.44;;;-0.26;87.73
59531;BME280;45349;48.692;8.186;2023-03-01T07:53:46;99119.66;;;-0.10;85.83
59531;BME280;45349;48.692;8.186;2023-03-01T07:56:14;99117.34;;;0.03;86.34
59531;BME280;45349;48.692;8.186;2023-03-01T07:58:43;99111.59;;;0.17;84.62
59531;BME280;45349;48.692;8.186;2023-03-01T08:01:12;99115.44;;;0.26;81.44
59531;BME280;45349;48.692;8.186;2023-03-01T08:03:39;99110.56;;;0.39;80.62
59531;BME280;45349;48.692;8.186;2023-03-01T08:06:09;99116.31;;;0.44;80.71
59531;BME280;45349;48.692;8.186;2023-03-01T08:08:36;99120.31;;;0.50;78.95
59531;BME280;45349;48.692;8.186;2023-03-01T08:11:04;99111.63;;;0.52;78.86
59531;BME280;45349;48.692;8.186;2023-03-01T08:13:32;99115.03;;;0.53;77.86
59531;BME280;45349;48.692;8.186;2023-03-01T08:16:01;99110.19;;;0.64;76.69
59531;BME280;45349;48.692;8.186;2023-03-01T08:18:28;99107.22;;;0.54;78.61
59531;BME280;45349;48.692;8.186;2023-03-01T08:20:55;99104.44;;;0.59;76.99
59531;BME280;45349;48.692;8.186;2023-03-01T08:23:23;99101.63;;;0.64;77.41
59531;BME280;45349;48.692;8.186;2023-03-01T08:25:50;99100.38;;;0.72;77.12
59531;BME280;45349;48.692;8.186;2023-03-01T08:28:20;99101.19;;;0.73;76.96
59531;BME280;45349;48.692;8.186;2023-03-01T08:30:46;99092.19;;;0.82;76.66
59531;BME280;45349;48.692;8.186;2023-03-01T08:33:13;99103.22;;;0.84;76.71
59531;BME280;45349;48.692;8.186;2023-03-01T08:35:40;99097.25;;;0.83;75.60
59531;BME280;45349;48.692;8.186;2023-03-01T08:38:06;99100.34;;;0.90;76.24
59531;BME280;45349;48.692;8.186;2023-03-01T08:40:34;99108.50;;;0.98;77.22
59531;BME280;45349;48.692;8.186;2023-03-01T08:43:01;99104.78;;;1.04;77.35
59531;BME280;45349;48.692;8.186;2023-03-01T08:45:27;99105.97;;;1.14;76.12
59531;BME280;45349;48.692;8.186;2023-03-01T08:47:54;99094.22;;;1.26;74.89
59531;BME280;45349;48.692;8.186;2023-03-01T08:50:21;99095.38;;;1.37;75.10
59531;BME280;45349;48.692;8.186;2023-03-01T08:52:49;99095.00;;;1.60;72.92
59531;BME280;45349;48.692;8.186;2023-03-01T08:55:16;99089.44;;;1.68;71.85
59531;BME280;45349;48.692;8.186;2023-03-01T08:57:44;99091.34;;;1.65;71.57
59531;BME280;45349;48.692;8.186;2023-03-01T09:00:11;99078.41;;;1.82;70.86
59531;BME280;45349;48.692;8.186;2023-03-01T09:02:40;99078.88;;;1.89;69.88
59531;BME280;45349;48.692;8.186;2023-03-01T09:05:07;99081.97;;;1.96;68.85
59531;BME280;45349;48.692;8.186;2023-03-01T09:07:34;99076.31;;;1.89;69.15
59531;BME280;45349;48.692;8.186;2023-03-01T09:10:00;99074.16;;;1.97;68.74
59531;BME280;45349;48.692;8.186;2023-03-01T09:12:27;99065.84;;;2.08;68.97
59531;BME280;45349;48.692;8.186;2023-03-01T09:14:55;99064.31;;;2.20;68.54
59531;BME280;45349;48.692;8.186;2023-03-01T09:17:21;99065.69;;;2.26;69.36
59531;BME280;45349;48.692;8.186;2023-03-01T09:19:48;99059.56;;;2.28;68.04
59531;BME280;45349;48.692;8.186;2023-03-01T09:22:14;99063.53;;;2.34;68.02
59531;BME280;45349;48.692;8.186;2023-03-01T09:24:41;99062.69;;;2.33;68.44
59531;BME280;45349;48.692;8.186;2023-03-01T09:27:08;99055.84;;;2.18;70.40
59531;BME280;45349;48.692;8.186;2023-03-01T09:29:36;99052.47;;;2.32;68.83
59531;BME280;45349;48.692;8.186;2023-03-01T09:32:04;99048.91;;;2.34;69.59
59531;BME280;45349;48.692;8.186;2023-03-01T09:34:32;99048.19;;;2.47;68.99
59531;BME280;45349;48.692;8.186;2023-03-01T09:37:18;99055.00;;;2.17;68.38
59531;BME280;45349;48.692;8.186;2023-03-01T09:39:45;99051.09;;;2.26;68.73
59531;BME280;45349;48.692;8.186;2023-03-01T09:42:12;99054.25;;;2.15;67.84
59531;BME280;45349;48.692;8.186;2023-03-01T09:44:45;99047.72;;;2.10;68.98
59531;BME280;45349;48.692;8.186;2023-03-01T09:47:18;99055.09;;;2.46;77.47
59531;BME280;45349;48.692;8.186;2023-03-01T09:49:51;99048.94;;;2.49;70.90
59531;BME280;45349;48.692;8.186;2023-03-01T09:52:25;99051.16;;;2.55;67.93
59531;BME280;45349;48.692;8.186;2023-03-01T09:54:56;99042.38;;;2.43;68.80
59531;BME280;45349;48.692;8.186;2023-03-01T09:57:28;99047.91;;;2.51;68.46
59531;BME280;45349;48.692;8.186;2023-03-01T10:00:03;99046.06;;;2.39;68.25
59531;BME280;45349;48.692;8.186;2023-03-01T10:02:39;99042.66;;;2.39;67.06
59531;BME280;45349;48.692;8.186;2023-03-01T10:05:26;99033.78;;;2.28;68.43
59531;BME280;45349;48.692;8.186;2023-03-01T10:08:02;99032.78;;;2.31;68.62
59531;BME280;45349;48.692;8.186;2023-03-01T10:10:34;99028.00;;;2.39;68.62
59531;BME280;45349;48.692;8.186;2023-03-01T10:13:04;99027.66;;;2.45;69.42
59531;BME280;45349;48.692;8.186;2023-03-01T10:15:37;99023.81;;;2.53;67.92
59531;BME280;45349;48.692;8.186;2023-03-01T10:18:12;99023.06;;;2.50;68.43
59531;BME280;45349;48.692;8.186;2023-03-01T10:20:46;99019.16;;;2.59;67.87
59531;BME280;45349;48.692;8.186;2023-03-01T10:23:16;99042.91;;;2.64;68.23
59531;BME280;45349;48.692;8.186;2023-03-01T10:25:50;99021.06;;;2.56;68.74
59531;BME280;45349;48.692;8.186;2023-03-01T10:28:26;99015.47;;;2.63;67.58
59531;BME280;45349;48.692;8.186;2023-03-01T10:30:56;99016.28;;;2.64;68.10
59531;BME280;45349;48.692;8.186;2023-03-01T10:33:27;99017.66;;;2.70;68.46
59531;BME280;45349;48.692;8.186;2023-03-01T10:35:55;99014.34;;;2.82;67.35
59531;BME280;45349;48.692;8.186;2023-03-01T10:38:22;99010.22;;;2.79;66.23
59531;BME280;45349;48.692;8.186;2023-03-01T10:40:51;98997.03;;;2.84;66.77
59531;BME280;45349;48.692;8.186;2023-03-01T10:43:21;99008.81;;;2.74;66.14
59531;BME280;45349;48.692;8.186;2023-03-01T10:45:48;99008.91;;;2.72;66.70
59531;BME280;45349;48.692;8.186;2023-03-01T10:48:17;99000.72;;;2.80;66.88
59531;BME280;45349;48.692;8.186;2023-03-01T10:50:47;99003.78;;;2.87;66.18
59531;BME280;45349;48.692;8.186;2023-03-01T10:53:23;99003.59;;;2.90;66.68
59531;BME280;45349;48.692;8.186;2023-03-01T10:56:01;98996.97;;;2.86;65.38
59531;BME280;45349;48.692;8.186;2023-03-01T10:58:30;98994.19;;;2.89;65.75
59531;BME280;45349;48.692;8.186;2023-03-01T11:00:58;98982.41;;;2.99;65.46
59531;BME280;45349;48.692;8.186;2023-03-01T11:03:27;98982.75;;;3.07;66.44
59531;BME280;45349;48.692;8.186;2023-03-01T11:06:01;98982.28;;;3.15;65.76
59531;BME280;45349;48.692;8.186;2023-03-01T11:08:41;98978.69;;;3.18;65.05
59531;BME280;45349;48.692;8.186;2023-03-01T11:11:29;98974.59;;;3.28;65.47
59531;BME280;45349;48.692;8.186;2023-03-01T11:13:58;98964.00;;;3.33;64.28
59531;BME280;45349;48.692;8.186;2023-03-01T11:16:31;98967.47;;;3.46;63.57
59531;BME280;45349;48.692;8.186;2023-03-01T11:19:03;98949.44;;;3.59;63.65
59531;BME280;45349;48.692;8.186;2023-03-01T11:21:33;98952.38;;;3.80;64.85
59531;BME280;45349;48.692;8.186;2023-03-01T11:24:01;98945.69;;;3.91;61.93
59531;BME280;45349;48.692;8.186;2023-03-01T11:26:31;98944.38;;;3.98;64.05
59531;BME280;45349;48.692;8.186;2023-03-01T11:29:04;98946.66;;;4.16;62.29
59531;BME280;45349;48.692;8.186;2023-03-01T11:31:33;98942.88;;;4.21;62.33
59531;BME280;45349;48.692;8.186;2023-03-01T11:34:06;98938.28;;;4.38;61.22
59531;BME280;45349;48.692;8.186;2023-03-01T11:36:41;98927.84;;;4.52;59.98
59531;BME280;45349;48.692;8.186;2023-03-01T11:39:21;98927.22;;;4.75;62.56
59531;BME280;45349;48.692;8.186;2023-03-01T11:42:00;98919.81;;;4.94;59.46
59531;BME280;45349;48.692;8.186;2023-03-01T11:44:30;98917.13;;;4.96;57.27
59531;BME280;45349;48.692;8.186;2023-03-01T11:47:17;98918.66;;;4.98;57.64
59531;BME280;45349;48.692;8.186;2023-03-01T11:50:06;98915.03;;;5.01;57.47
59531;BME280;45349;48.692;8.186;2023-03-01T11:52:46;98911.47;;;5.15;57.39
59531;BME280;45349;48.692;8.186;2023-03-01T11:55:23;98895.19;;;5.26;57.83
59531;BME280;45349;48.692;8.186;2023-03-01T11:58:08;98896.44;;;5.44;57.85
59531;BME280;45349;48.692;8.186;2023-03-01T12:01:02;98899.38;;;5.40;56.18
59531;BME280;45349;48.692;8.186;2023-03-01T12:03:52;98898.38;;;5.29;56.13
59531;BME280;45349;48.692;8.186;2023-03-01T12:06:44;98889.00;;;5.40;57.18
59531;BME280;45349;48.692;8.186;2023-03-01T12:09:31;98883.56;;;5.31;56.17
59531;BME280;45349;48.692;8.186;2023-03-01T12:12:16;98889.44;;;5.34;55.74
59531;BME280;45349;48.692;8.186;2023-03-01T12:14:55;98882.63;;;5.32;56.68
59531;BME280;45349;48.692;8.186;2023-03-01T12:17:37;98878.94;;;5.48;55.91
59531;BME280;45349;48.692;8.186;2023-03-01T12:20:17;98867.44;;;5.64;56.50
59531;BME280;45349;48.692;8.186;2023-03-01T12:23:02;98869.63;;;5.81;55.20
59531;BME280;45349;48.692;8.186;2023-03-01T12:25:45;98865.34;;;5.69;55.28
59531;BME280;45349;48.692;8.186;2023-03-01T12:28:22;98855.22;;;5.66;55.17
59531;BME280;45349;48.692;8.186;2023-03-01T12:31:05;98854.97;;;5.69;54.96
59531;BME280;45349;48.692;8.186;2023-03-01T12:33:41;98847.59;;;5.87;54.75
59531;BME280;45349;48.692;8.186;2023-03-01T12:36:31;98846.41;;;5.91;54.30
59531;BME280;45349;48.692;8.186;2023-03-01T12:39:14;98850.63;;;5.81;54.87
59531;BME280;45349;48.692;8.186;2023-03-01T12:41:54;98847.81;;;5.84;55.64
59531;BME280;45349;48.692;8.186;2023-03-01T12:44:43;98839.22;;;5.72;53.67
59531;BME280;45349;48.692;8.186;2023-03-01T12:47:30;98836.09;;;6.02;54.14
59531;BME280;45349;48.692;8.186;2023-03-01T12:50:01;98838.56;;;6.15;54.31
59531;BME280;45349;48.692;8.186;2023-03-01T12:52:35;98831.25;;;6.09;53.64
59531;BME280;45349;48.692;8.186;2023-03-01T12:55:08;98846.56;;;6.01;53.17
59531;BME280;45349;48.692;8.186;2023-03-01T12:57:47;98837.75;;;6.15;52.91
59531;BME280;45349;48.692;8.186;2023-03-01T13:00:27;98829.34;;;6.00;53.45
59531;BME280;45349;48.692;8.186;2023-03-01T13:03:00;98838.00;;;6.12;53.75
59531;BME280;45349;48.692;8.186;2023-03-01T13:05:39;98826.22;;;6.08;53.14
59531;BME280;45349;48.692;8.186;2023-03-01T13:08:13;98828.69;;;6.20;53.03
59531;BME280;45349;48.692;8.186;2023-03-01T13:10:46;98824.69;;;6.28;52.67
59531;BME280;45349;48.692;8.186;2023-03-01T13:13:20;98822.22;;;6.15;52.23
59531;BME280;45349;48.692;8.186;2023-03-01T13:15:47;98812.41;;;6.07;53.04
59531;BME280;45349;48.692;8.186;2023-03-01T13:18:32;98824.66;;;6.39;53.01